createdAt,value
2022-10-09T00:00:16.343Z,97221.25
2022-10-09T00:05:20.870Z,97200.34
2022-10-09T00:10:23.833Z,97206.41
2022-10-09T00:15:26.382Z,97216.88
2022-10-09T00:20:30.255Z,97196.78
2022-10-09T00:25:33.075Z,97188.06
2022-10-09T00:30:35.708Z,97208.09
2022-10-09T00:35:40.030Z,97181.06
2022-10-09T00:40:42.966Z,97182.81
2022-10-09T00:45:50.869Z,97182.78
2022-10-09T00:50:57.495Z,97167.94
2022-10-09T00:56:00.132Z,97195.81
2022-10-09T01:01:02.766Z,97189.72
2022-10-09T01:06:12.641Z,97182.75
2022-10-09T01:11:19.741Z,97187.97
2022-10-09T01:16:25.273Z,97188.81
2022-10-09T01:21:34.228Z,97165.25
2022-10-09T01:26:51.910Z,97157.38
2022-10-09T01:31:55.237Z,97170.47
2022-10-09T01:36:58.231Z,97137.31
2022-10-09T01:42:02.355Z,97133.81
2022-10-09T01:47:05.468Z,97123.34
2022-10-09T01:52:15.365Z,97133.78
2022-10-09T01:57:33.483Z,97121.56
2022-10-09T02:02:36.728Z,97131.13
2022-10-09T02:07:39.466Z,97158.09
2022-10-09T02:12:48.384Z,97148.44
2022-10-09T02:17:52.466Z,97140.66
2022-10-09T02:22:56.515Z,97130.19
2022-10-09T02:28:01.433Z,97126.69
2022-10-09T02:33:05.182Z,97126.59
2022-10-09T02:38:07.713Z,97103.13
2022-10-09T02:43:11.603Z,97141.38
2022-10-09T02:48:14.129Z,97120.47
2022-10-09T02:53:16.668Z,97119.59
2022-10-09T02:58:20.639Z,97136.16
2022-10-09T03:03:23.197Z,97152.59
2022-10-09T03:08:25.726Z,97176.91
2022-10-09T03:13:29.665Z,97163.00
2022-10-09T03:18:32.424Z,97166.44
2022-10-09T03:23:35.348Z,97191.56
2022-10-09T03:28:40.446Z,97182.03
2022-10-09T03:33:43.169Z,97169.06
2022-10-09T03:38:45.712Z,97196.84
2022-10-09T03:43:49.574Z,97204.59
2022-10-09T03:48:52.122Z,97191.63
2022-10-09T03:53:54.661Z,97223.75
2022-10-09T03:58:58.545Z,97219.41
2022-10-09T04:04:01.085Z,97221.13
2022-10-09T04:09:03.670Z,97219.38
2022-10-09T04:14:07.594Z,97223.66
2022-10-09T04:19:10.169Z,97232.34
2022-10-09T04:24:12.685Z,97234.09
2022-10-09T04:29:16.579Z,97244.38
2022-10-09T04:34:19.177Z,97247.88
2022-10-09T04:39:21.710Z,97255.63
2022-10-09T04:44:25.684Z,97262.53
2022-10-09T04:49:28.252Z,97266.81
2022-10-09T04:54:30.791Z,97267.69
2022-10-09T04:59:34.654Z,97273.75
2022-10-09T05:04:37.184Z,97271.19
2022-10-09T05:09:39.822Z,97292.00
2022-10-09T05:14:43.750Z,97298.06
2022-10-09T05:19:46.567Z,97292.84
2022-10-09T05:24:49.263Z,97304.03
2022-10-09T05:29:53.141Z,97317.81
2022-10-09T05:34:55.685Z,97327.41
2022-10-09T05:39:58.210Z,97336.09
2022-10-09T05:45:02.078Z,97336.97
2022-10-09T05:50:05.077Z,97374.16
2022-10-09T05:55:08.607Z,97354.31
2022-10-09T06:00:14.158Z,97334.47
2022-10-09T06:05:16.830Z,97347.41
2022-10-09T06:10:19.604Z,97330.97
2022-10-09T06:15:23.467Z,97317.22
2022-10-09T06:20:26.062Z,97300.84
2022-10-09T06:25:28.582Z,97299.22
2022-10-09T06:30:38.422Z,97302.88
2022-10-09T06:35:41.466Z,97297.69
2022-10-09T06:40:45.131Z,97256.91
2022-10-09T06:45:49.071Z,97242.19
2022-10-09T06:50:51.726Z,97230.03
2022-10-09T06:55:54.832Z,97220.50
2022-10-09T07:01:06.341Z,97210.09
2022-10-09T07:06:10.958Z,97223.13
2022-10-09T07:11:15.174Z,97213.56
2022-10-09T07:16:22.294Z,97191.88
2022-10-09T07:21:24.914Z,97150.19
2022-10-09T07:26:28.687Z,97167.59
2022-10-09T07:31:32.565Z,97084.94
2022-10-09T07:36:35.535Z,97093.69
2022-10-09T07:41:38.078Z,97080.59
2022-10-09T07:46:42.020Z,97067.53
2022-10-09T07:51:45.194Z,96993.34
2022-10-09T07:56:47.787Z,97010.81
2022-10-09T08:01:51.730Z,96976.72
2022-10-09T08:06:54.308Z,96964.44
2022-10-09T08:11:57.176Z,96949.59
2022-10-09T08:17:01.436Z,96941.69
2022-10-09T08:22:03.961Z,96918.03
2022-10-09T08:27:06.875Z,96704.50
2022-10-09T08:32:10.794Z,96710.59
2022-10-09T08:37:13.409Z,96672.66
2022-10-09T08:42:27.798Z,96644.28
2022-10-09T08:47:38.057Z,96626.50
2022-10-09T08:52:49.874Z,96725.28
2022-10-09T08:57:54.876Z,96756.94
2022-10-09T09:03:15.040Z,96704.78
2022-10-09T09:08:27.218Z,96694.16
2022-10-09T09:13:40.444Z,96696.78
2022-10-09T09:18:46.627Z,96686.09
2022-10-09T09:23:49.527Z,96703.63
2022-10-09T09:28:55.485Z,96689.44
2022-10-09T09:34:04.250Z,96626.50
2022-10-09T09:44:31.547Z,96561.19
2022-10-09T09:49:35.460Z,96574.28
2022-10-09T09:54:39.238Z,96587.25
2022-10-09T09:59:42.984Z,96599.28
2022-10-09T10:04:55.440Z,96575.75
2022-10-09T10:10:06.674Z,96582.13
2022-10-09T10:15:21.694Z,96652.81
2022-10-09T10:20:25.979Z,96656.44
2022-10-09T10:25:31.256Z,96666.13
2022-10-09T10:30:35.238Z,96684.66
2022-10-09T10:35:40.927Z,96760.28
2022-10-09T10:40:45.149Z,96880.56
2022-10-09T10:45:55.578Z,96990.31
2022-10-09T10:51:14.503Z,97086.94
2022-10-09T10:56:24.777Z,97294.41
2022-10-09T11:01:33.706Z,97469.50
2022-10-09T11:06:41.389Z,97612.09
2022-10-09T11:11:48.229Z,97750.38
2022-10-09T11:17:00.921Z,97892.69
2022-10-09T11:22:11.607Z,98128.66
2022-10-09T11:27:17.529Z,98253.91
2022-10-09T11:32:23.460Z,98372.00
2022-10-09T11:37:29.632Z,98453.16
2022-10-09T11:42:32.547Z,98566.03
2022-10-09T11:47:40.542Z,98760.28
2022-10-09T11:52:49.341Z,98887.56
2022-10-09T11:57:52.437Z,99093.56
2022-10-09T12:02:58.191Z,99315.59
2022-10-09T12:08:11.194Z,99495.97
2022-10-09T12:13:31.211Z,99689.88
2022-10-09T12:18:36.269Z,99865.19
2022-10-09T12:23:40.527Z,100063.47
2022-10-09T12:28:46.853Z,100216.94
2022-10-09T12:33:52.847Z,100320.84
2022-10-09T12:38:57.030Z,100417.09
2022-10-09T12:44:00.143Z,100507.50
2022-10-09T12:49:04.876Z,100590.63
2022-10-09T12:54:11.238Z,100674.03
2022-10-09T12:59:14.006Z,100721.34
2022-10-09T13:04:26.646Z,100765.13
2022-10-09T13:09:38.336Z,100810.78
2022-10-09T13:14:44.463Z,100845.81
2022-10-09T13:19:51.910Z,100866.47
2022-10-09T13:24:57.786Z,100881.81
2022-10-09T13:30:01.352Z,100892.09
2022-10-09T13:35:04.384Z,100898.41
2022-10-09T13:40:12.858Z,100897.75
2022-10-09T13:45:15.398Z,100901.81
2022-10-09T13:50:19.619Z,100894.72
2022-10-09T13:55:23.525Z,100898.31
2022-10-09T14:00:26.226Z,100897.88
2022-10-09T14:05:29.848Z,100896.44
2022-10-09T14:10:33.731Z,100892.75
2022-10-09T14:15:39.711Z,100892.84
2022-10-09T14:20:42.264Z,100886.97
2022-10-09T14:25:46.183Z,100888.00
2022-10-09T14:30:48.730Z,100883.19
2022-10-09T14:35:51.272Z,100881.50
2022-10-09T14:40:57.048Z,100869.59
2022-10-09T14:46:04.402Z,100863.47
2022-10-09T14:51:09.470Z,100852.44
2022-10-09T14:56:15.138Z,100844.22
2022-10-09T15:01:19.419Z,100841.56
2022-10-09T15:06:24.706Z,100841.03
2022-10-09T15:11:29.195Z,100839.97
2022-10-09T15:16:32.286Z,100833.13
2022-10-09T15:21:35.832Z,100828.88
2022-10-09T15:26:39.734Z,100816.31
2022-10-09T15:31:42.832Z,100815.44
2022-10-09T15:36:45.973Z,100804.66
2022-10-09T15:41:49.979Z,100795.38
2022-10-09T15:46:52.592Z,100796.03
2022-10-09T15:51:55.124Z,100788.56
2022-10-09T15:56:59.127Z,100781.16
2022-10-09T16:02:01.779Z,100786.16
2022-10-09T16:07:05.090Z,100776.94
2022-10-09T16:12:09.026Z,100775.81
2022-10-09T16:17:11.693Z,100770.94
2022-10-09T16:22:14.271Z,100774.09
2022-10-09T16:27:18.210Z,100775.31
2022-10-09T16:32:20.805Z,100777.38
2022-10-09T16:37:23.420Z,100773.31
2022-10-09T16:42:27.344Z,100770.81
2022-10-09T16:47:30.149Z,100762.41
2022-10-09T16:52:32.749Z,100766.22
2022-10-09T16:57:36.667Z,100757.94
2022-10-09T17:02:39.396Z,100755.69
2022-10-09T17:07:42.030Z,100744.06
2022-10-09T17:12:45.964Z,100737.75
2022-10-09T17:17:48.812Z,100733.00
2022-10-09T17:22:51.962Z,100728.34
2022-10-09T17:27:56.330Z,100715.75
2022-10-09T17:32:58.909Z,100715.44
2022-10-09T17:38:01.532Z,100701.84
2022-10-09T17:43:05.621Z,100701.66
2022-10-09T17:48:08.796Z,100676.63
2022-10-09T17:53:11.365Z,100667.41
2022-10-09T17:58:15.303Z,100652.19
2022-10-09T18:03:18.705Z,100638.56
2022-10-09T18:08:22.233Z,100617.97
2022-10-09T18:13:26.203Z,100589.66
2022-10-09T18:18:28.827Z,100586.75
2022-10-09T18:23:31.470Z,100573.44
2022-10-09T18:28:35.535Z,100566.03
2022-10-09T18:33:38.759Z,100554.22
2022-10-09T18:38:41.338Z,100538.84
2022-10-09T18:43:45.321Z,100519.16
2022-10-09T18:48:48.142Z,100502.31
2022-10-09T18:53:53.337Z,100479.81
2022-10-09T18:58:57.529Z,100464.44
2022-10-09T19:04:00.179Z,100451.72
2022-10-09T19:09:02.795Z,100418.13
2022-10-09T19:14:06.799Z,100403.84
2022-10-09T19:19:09.377Z,100378.06
2022-10-09T19:24:12.172Z,100374.16
2022-10-09T19:29:16.101Z,100352.00
2022-10-09T19:34:19.507Z,100324.44
2022-10-09T19:39:22.230Z,100307.59
2022-10-09T19:44:26.165Z,100290.44
2022-10-09T19:49:31.474Z,100253.41
2022-10-09T19:54:34.943Z,100220.91
2022-10-09T19:59:38.860Z,100193.78
2022-10-09T20:04:41.440Z,100163.81
2022-10-09T20:09:43.991Z,100143.22
2022-10-09T20:14:47.962Z,100116.41
2022-10-09T20:19:50.665Z,100087.34
2022-10-09T20:24:53.359Z,100069.03
2022-10-09T20:29:57.266Z,100053.03
2022-10-09T20:35:02.308Z,100030.66
2022-10-09T20:40:05.366Z,100009.66
2022-10-09T20:45:09.945Z,99983.78
2022-10-09T20:50:12.597Z,99960.22
2022-10-09T20:55:15.206Z,99937.44
2022-10-09T21:00:19.592Z,99917.59
2022-10-09T21:05:22.172Z,99880.72
2022-10-09T21:10:24.801Z,99865.53
2022-10-09T21:15:28.714Z,99832.09
2022-10-09T21:20:31.346Z,99801.16
2022-10-09T21:25:34.273Z,99767.13
2022-10-09T21:30:41.678Z,99742.34
2022-10-09T21:35:45.767Z,99718.63
2022-10-09T21:40:49.691Z,99691.28
2022-10-09T21:45:53.607Z,99650.97
2022-10-09T21:50:56.162Z,99618.31
2022-10-09T21:55:58.729Z,99592.72
2022-10-09T22:01:03.217Z,99553.22
2022-10-09T22:06:08.148Z,99531.13
2022-10-09T22:11:11.559Z,99499.75
2022-10-09T22:16:16.009Z,99481.88
2022-10-09T22:21:18.992Z,99451.03
2022-10-09T22:26:23.535Z,99420.56
2022-10-09T22:31:28.368Z,99402.97
2022-10-09T22:36:32.534Z,99380.00
2022-10-09T22:41:36.045Z,99369.28
2022-10-09T22:46:41.504Z,99344.72
2022-10-09T22:51:44.355Z,99329.31
2022-10-09T22:56:47.367Z,99309.47
2022-10-09T23:01:53.863Z,99300.66
2022-10-09T23:06:57.777Z,99279.03
2022-10-09T23:12:00.788Z,99282.31
2022-10-09T23:17:04.708Z,99267.38
2022-10-09T23:22:07.267Z,99248.13
2022-10-09T23:27:09.823Z,99238.31
2022-10-09T23:32:13.774Z,99233.84
2022-10-09T23:37:16.338Z,99213.66
2022-10-09T23:42:18.881Z,99212.81
2022-10-09T23:47:22.775Z,99206.53
2022-10-09T23:52:25.409Z,99191.56
2022-10-09T23:57:28.187Z,99184.53
